sensor_id;sensor_type;location;lat;lon;timestamp;temperature;humidity
24217;DHT22;12356;49.386;8.688;2022-11-25T00:00:36;7.70;51.30
24217;DHT22;12356;49.386;8.688;2022-11-25T00:03:07;7.70;51.30
24217;DHT22;12356;49.386;8.688;2022-11-25T00:05:37;7.60;51.20
24217;DHT22;12356;49.386;8.688;2022-11-25T00:08:08;7.70;51.50
24217;DHT22;12356;49.386;8.688;2022-11-25T00:10:39;7.70;51.80
24217;DHT22;12356;49.386;8.688;2022-11-25T00:13:09;7.60;51.90
24217;DHT22;12356;49.386;8.688;2022-11-25T00:15:40;7.60;52.70
24217;DHT22;12356;49.386;8.688;2022-11-25T00:18:10;7.70;52.80
24217;DHT22;12356;49.386;8.688;2022-11-25T00:20:41;7.70;52.60
24217;DHT22;12356;49.386;8.688;2022-11-25T00:23:12;7.70;52.30
24217;DHT22;12356;49.386;8.688;2022-11-25T00:25:42;7.60;52.70
24217;DHT22;12356;49.386;8.688;2022-11-25T00:28:13;7.60;52.70
24217;DHT22;12356;49.386;8.688;2022-11-25T00:30:44;7.70;52.70
24217;DHT22;12356;49.386;8.688;2022-11-25T00:33:14;7.70;52.40
24217;DHT22;12356;49.386;8.688;2022-11-25T00:35:45;7.60;52.50
24217;DHT22;12356;49.386;8.688;2022-11-25T00:38:16;7.70;52.90
24217;DHT22;12356;49.386;8.688;2022-11-25T00:40:51;7.70;52.20
24217;DHT22;12356;49.386;8.688;2022-11-25T00:43:42;7.70;52.30
24217;DHT22;12356;49.386;8.688;2022-11-25T00:46:31;7.70;51.90
24217;DHT22;12356;49.386;8.688;2022-11-25T00:49:02;7.70;52.20
24217;DHT22;12356;49.386;8.688;2022-11-25T00:51:33;7.60;51.40
24217;DHT22;12356;49.386;8.688;2022-11-25T00:54:03;7.60;51.50
24217;DHT22;12356;49.386;8.688;2022-11-25T00:56:34;7.60;52.00
24217;DHT22;12356;49.386;8.688;2022-11-25T00:59:05;7.50;51.80
24217;DHT22;12356;49.386;8.688;2022-11-25T01:01:36;7.50;51.90
24217;DHT22;12356;49.386;8.688;2022-11-25T01:04:07;7.50;52.30
24217;DHT22;12356;49.386;8.688;2022-11-25T01:06:38;7.50;52.50
24217;DHT22;12356;49.386;8.688;2022-11-25T01:09:10;7.50;52.70
24217;DHT22;12356;49.386;8.688;2022-11-25T01:11:42;7.50;52.20
24217;DHT22;12356;49.386;8.688;2022-11-25T01:14:13;7.50;51.70
24217;DHT22;12356;49.386;8.688;2022-11-25T01:16:43;7.50;51.20
24217;DHT22;12356;49.386;8.688;2022-11-25T01:19:15;7.50;52.10
24217;DHT22;12356;49.386;8.688;2022-11-25T01:21:46;7.50;51.10
24217;DHT22;12356;49.386;8.688;2022-11-25T01:24:17;7.60;51.30
24217;DHT22;12356;49.386;8.688;2022-11-25T01:26:47;7.50;51.40
24217;DHT22;12356;49.386;8.688;2022-11-25T01:29:18;7.50;51.10
24217;DHT22;12356;49.386;8.688;2022-11-25T01:31:49;7.40;51.10
24217;DHT22;12356;49.386;8.688;2022-11-25T01:34:26;7.40;51.00
24217;DHT22;12356;49.386;8.688;2022-11-25T01:36:57;7.40;51.60
24217;DHT22;12356;49.386;8.688;2022-11-25T01:39:28;7.30;51.70
24217;DHT22;12356;49.386;8.688;2022-11-25T01:41:59;7.30;52.20
24217;DHT22;12356;49.386;8.688;2022-11-25T01:44:31;7.30;52.80
24217;DHT22;12356;49.386;8.688;2022-11-25T01:47:20;7.30;53.70
24217;DHT22;12356;49.386;8.688;2022-11-25T01:49:55;7.30;54.60
24217;DHT22;12356;49.386;8.688;2022-11-25T01:52:36;7.30;54.60
24217;DHT22;12356;49.386;8.688;2022-11-25T01:55:14;7.30;54.90
24217;DHT22;12356;49.386;8.688;2022-11-25T02:00:32;7.40;55.40
24217;DHT22;12356;49.386;8.688;2022-11-25T02:03:03;7.40;55.30
24217;DHT22;12356;49.386;8.688;2022-11-25T02:05:58;7.40;54.60
24217;DHT22;12356;49.386;8.688;2022-11-25T02:08:32;7.40;54.50
24217;DHT22;12356;49.386;8.688;2022-11-25T02:11:03;7.40;54.80
24217;DHT22;12356;49.386;8.688;2022-11-25T02:13:34;7.40;55.30
24217;DHT22;12356;49.386;8.688;2022-11-25T02:16:06;7.50;56.00
24217;DHT22;12356;49.386;8.688;2022-11-25T02:18:37;7.50;55.70
24217;DHT22;12356;49.386;8.688;2022-11-25T02:21:08;7.60;55.50
24217;DHT22;12356;49.386;8.688;2022-11-25T02:23:50;7.60;55.40
24217;DHT22;12356;49.386;8.688;2022-11-25T02:26:22;7.50;55.80
24217;DHT22;12356;49.386;8.688;2022-11-25T02:28:53;7.50;56.20
24217;DHT22;12356;49.386;8.688;2022-11-25T02:31:24;7.60;56.30
24217;DHT22;12356;49.386;8.688;2022-11-25T02:33:55;7.60;56.30
24217;DHT22;12356;49.386;8.688;2022-11-25T02:36:26;7.60;56.60
24217;DHT22;12356;49.386;8.688;2022-11-25T02:38:58;7.60;56.50
24217;DHT22;12356;49.386;8.688;2022-11-25T02:41:44;7.60;55.50
24217;DHT22;12356;49.386;8.688;2022-11-25T02:44:17;7.50;55.70
24217;DHT22;12356;49.386;8.688;2022-11-25T02:46:47;7.50;56.20
24217;DHT22;12356;49.386;8.688;2022-11-25T02:49:18;7.50;57.30
24217;DHT22;12356;49.386;8.688;2022-11-25T02:51:49;7.50;56.60
24217;DHT22;12356;49.386;8.688;2022-11-25T02:54:19;7.60;56.40
24217;DHT22;12356;49.386;8.688;2022-11-25T02:56:50;7.60;55.80
24217;DHT22;12356;49.386;8.688;2022-11-25T02:59:21;7.60;55.50
24217;DHT22;12356;49.386;8.688;2022-11-25T03:01:51;7.60;56.20
24217;DHT22;12356;49.386;8.688;2022-11-25T03:04:22;7.60;55.30
24217;DHT22;12356;49.386;8.688;2022-11-25T03:06:52;7.60;55.50
24217;DHT22;12356;49.386;8.688;2022-11-25T03:09:23;7.60;55.50
24217;DHT22;12356;49.386;8.688;2022-11-25T03:11:54;7.60;55.40
24217;DHT22;12356;49.386;8.688;2022-11-25T03:14:43;7.60;55.70
24217;DHT22;12356;49.386;8.688;2022-11-25T03:17:14;7.60;55.50
24217;DHT22;12356;49.386;8.688;2022-11-25T03:19:44;7.60;55.80
24217;DHT22;12356;49.386;8.688;2022-11-25T03:22:15;7.60;55.90
24217;DHT22;12356;49.386;8.688;2022-11-25T03:24:46;7.60;56.10
24217;DHT22;12356;49.386;8.688;2022-11-25T03:27:16;7.60;56.20
24217;DHT22;12356;49.386;8.688;2022-11-25T03:29:47;7.70;56.00
24217;DHT22;12356;49.386;8.688;2022-11-25T03:32:18;7.70;55.50
24217;DHT22;12356;49.386;8.688;2022-11-25T03:34:49;7.70;56.00
24217;DHT22;12356;49.386;8.688;2022-11-25T03:37:19;7.60;56.30
24217;DHT22;12356;49.386;8.688;2022-11-25T03:39:50;7.70;55.90
24217;DHT22;12356;49.386;8.688;2022-11-25T03:42:21;7.70;55.90
24217;DHT22;12356;49.386;8.688;2022-11-25T03:44:51;7.70;56.30
24217;DHT22;12356;49.386;8.688;2022-11-25T03:47:22;7.80;56.30
24217;DHT22;12356;49.386;8.688;2022-11-25T03:49:53;7.80;56.10
24217;DHT22;12356;49.386;8.688;2022-11-25T03:52:23;7.80;56.10
24217;DHT22;12356;49.386;8.688;2022-11-25T03:54:54;7.70;56.60
24217;DHT22;12356;49.386;8.688;2022-11-25T03:57:25;7.70;57.10
24217;DHT22;12356;49.386;8.688;2022-11-25T03:59:55;7.70;57.50
24217;DHT22;12356;49.386;8.688;2022-11-25T04:02:26;7.70;57.10
24217;DHT22;12356;49.386;8.688;2022-11-25T04:04:57;7.70;58.20
24217;DHT22;12356;49.386;8.688;2022-11-25T04:07:27;7.70;58.40
24217;DHT22;12356;49.386;8.688;2022-11-25T04:09:58;7.70;58.40
24217;DHT22;12356;49.386;8.688;2022-11-25T04:12:29;7.60;58.30
24217;DHT22;12356;49.386;8.688;2022-11-25T04:15:18;7.70;58.60
24217;DHT22;12356;49.386;8.688;2022-11-25T04:17:48;7.70;58.40
24217;DHT22;12356;49.386;8.688;2022-11-25T04:20:19;7.80;58.50
24217;DHT22;12356;49.386;8.688;2022-11-25T04:22:50;7.80;58.50
24217;DHT22;12356;49.386;8.688;2022-11-25T04:25:20;7.80;58.50
24217;DHT22;12356;49.386;8.688;2022-11-25T04:27:51;7.90;58.50
24217;DHT22;12356;49.386;8.688;2022-11-25T04:30:22;7.80;58.40
24217;DHT22;12356;49.386;8.688;2022-11-25T04:32:52;7.80;58.50
24217;DHT22;12356;49.386;8.688;2022-11-25T04:35:23;7.90;58.60
24217;DHT22;12356;49.386;8.688;2022-11-25T04:37:54;7.90;58.60
24217;DHT22;12356;49.386;8.688;2022-11-25T04:40:25;7.90;57.90
24217;DHT22;12356;49.386;8.688;2022-11-25T04:42:55;7.80;58.00
24217;DHT22;12356;49.386;8.688;2022-11-25T04:45:26;7.90;58.50
24217;DHT22;12356;49.386;8.688;2022-11-25T04:47:56;7.90;58.60
24217;DHT22;12356;49.386;8.688;2022-11-25T04:50:27;7.90;58.40
24217;DHT22;12356;49.386;8.688;2022-11-25T04:52:58;7.90;58.50
24217;DHT22;12356;49.386;8.688;2022-11-25T04:55:28;7.90;58.50
24217;DHT22;12356;49.386;8.688;2022-11-25T04:57:59;8.00;58.40
24217;DHT22;12356;49.386;8.688;2022-11-25T05:00:30;8.00;57.60
24217;DHT22;12356;49.386;8.688;2022-11-25T05:03:01;7.90;57.40
24217;DHT22;12356;49.386;8.688;2022-11-25T05:05:31;7.90;57.50
24217;DHT22;12356;49.386;8.688;2022-11-25T05:08:02;7.80;58.00
24217;DHT22;12356;49.386;8.688;2022-11-25T05:10:32;7.90;58.50
24217;DHT22;12356;49.386;8.688;2022-11-25T05:13:03;7.90;58.50
24217;DHT22;12356;49.386;8.688;2022-11-25T05:15:34;7.90;58.20
24217;DHT22;12356;49.386;8.688;2022-11-25T05:18:04;7.90;58.10
24217;DHT22;12356;49.386;8.688;2022-11-25T05:20:35;7.90;57.30
24217;DHT22;12356;49.386;8.688;2022-11-25T05:23:06;7.90;57.30
24217;DHT22;12356;49.386;8.688;2022-11-25T05:25:37;8.00;57.50
24217;DHT22;12356;49.386;8.688;2022-11-25T05:28:07;8.00;57.20
24217;DHT22;12356;49.386;8.688;2022-11-25T05:30:38;8.00;56.40
24217;DHT22;12356;49.386;8.688;2022-11-25T05:33:08;8.00;55.60
24217;DHT22;12356;49.386;8.688;2022-11-25T05:35:39;7.90;55.60
24217;DHT22;12356;49.386;8.688;2022-11-25T05:38:10;7.90;55.10
24217;DHT22;12356;49.386;8.688;2022-11-25T05:40:40;7.80;54.90
24217;DHT22;12356;49.386;8.688;2022-11-25T05:43:11;7.80;55.80
24217;DHT22;12356;49.386;8.688;2022-11-25T05:45:41;7.80;55.70
24217;DHT22;12356;49.386;8.688;2022-11-25T05:48:12;7.80;55.20
24217;DHT22;12356;49.386;8.688;2022-11-25T05:50:43;7.80;56.10
24217;DHT22;12356;49.386;8.688;2022-11-25T05:53:13;7.80;56.90
24217;DHT22;12356;49.386;8.688;2022-11-25T05:55:53;7.90;57.00
24217;DHT22;12356;49.386;8.688;2022-11-25T05:58:27;8.00;57.50
24217;DHT22;12356;49.386;8.688;2022-11-25T06:00:58;7.90;57.40
24217;DHT22;12356;49.386;8.688;2022-11-25T06:03:29;8.00;57.40
24217;DHT22;12356;49.386;8.688;2022-11-25T06:06:00;8.00;56.80
24217;DHT22;12356;49.386;8.688;2022-11-25T06:08:30;8.10;56.10
24217;DHT22;12356;49.386;8.688;2022-11-25T06:11:09;8.10;55.70
24217;DHT22;12356;49.386;8.688;2022-11-25T06:13:42;8.00;55.40
24217;DHT22;12356;49.386;8.688;2022-11-25T06:16:17;8.10;55.50
24217;DHT22;12356;49.386;8.688;2022-11-25T06:18:48;8.10;55.80
24217;DHT22;12356;49.386;8.688;2022-11-25T06:21:19;8.10;55.50
24217;DHT22;12356;49.386;8.688;2022-11-25T06:23:50;8.20;55.10
24217;DHT22;12356;49.386;8.688;2022-11-25T06:26:21;8.10;54.60
24217;DHT22;12356;49.386;8.688;2022-11-25T06:28:53;8.10;53.40
24217;DHT22;12356;49.386;8.688;2022-11-25T06:31:25;8.10;52.50
24217;DHT22;12356;49.386;8.688;2022-11-25T06:33:55;8.20;52.80
24217;DHT22;12356;49.386;8.688;2022-11-25T06:36:26;8.20;53.00
24217;DHT22;12356;49.386;8.688;2022-11-25T06:38:57;8.20;52.90
24217;DHT22;12356;49.386;8.688;2022-11-25T06:41:27;8.20;53.90
24217;DHT22;12356;49.386;8.688;2022-11-25T06:43:58;8.20;54.00
24217;DHT22;12356;49.386;8.688;2022-11-25T06:46:29;8.30;54.00
24217;DHT22;12356;49.386;8.688;2022-11-25T06:49:00;8.30;54.10
24217;DHT22;12356;49.386;8.688;2022-11-25T06:51:31;8.30;54.50
24217;DHT22;12356;49.386;8.688;2022-11-25T06:54:02;8.30;54.50
24217;DHT22;12356;49.386;8.688;2022-11-25T06:56:32;8.30;54.50
24217;DHT22;12356;49.386;8.688;2022-11-25T06:59:03;8.30;53.70
24217;DHT22;12356;49.386;8.688;2022-11-25T07:01:34;8.30;53.20
24217;DHT22;12356;49.386;8.688;2022-11-25T07:04:04;8.40;53.10
24217;DHT22;12356;49.386;8.688;2022-11-25T07:06:35;8.50;53.00
24217;DHT22;12356;49.386;8.688;2022-11-25T07:09:06;8.40;53.40
24217;DHT22;12356;49.386;8.688;2022-11-25T07:11:38;8.40;54.20
24217;DHT22;12356;49.386;8.688;2022-11-25T07:14:12;8.40;55.30
24217;DHT22;12356;49.386;8.688;2022-11-25T07:16:44;8.40;56.50
24217;DHT22;12356;49.386;8.688;2022-11-25T07:19:16;8.40;57.90
24217;DHT22;12356;49.386;8.688;2022-11-25T07:21:48;8.40;59.30
24217;DHT22;12356;49.386;8.688;2022-11-25T07:24:18;8.40;61.10
24217;DHT22;12356;49.386;8.688;2022-11-25T07:26:49;8.30;61.10
24217;DHT22;12356;49.386;8.688;2022-11-25T07:29:19;8.40;61.80
24217;DHT22;12356;49.386;8.688;2022-11-25T07:31:50;8.40;62.00
24217;DHT22;12356;49.386;8.688;2022-11-25T07:34:21;8.50;62.20
24217;DHT22;12356;49.386;8.688;2022-11-25T07:36:52;8.50;62.40
24217;DHT22;12356;49.386;8.688;2022-11-25T07:39:23;8.40;63.00
24217;DHT22;12356;49.386;8.688;2022-11-25T07:41:54;8.40;62.20
24217;DHT22;12356;49.386;8.688;2022-11-25T07:44:25;8.50;62.80
24217;DHT22;12356;49.386;8.688;2022-11-25T07:46:55;8.40;63.30
24217;DHT22;12356;49.386;8.688;2022-11-25T07:49:26;8.40;64.20
24217;DHT22;12356;49.386;8.688;2022-11-25T07:51:57;8.50;64.60
24217;DHT22;12356;49.386;8.688;2022-11-25T07:54:33;8.50;65.10
24217;DHT22;12356;49.386;8.688;2022-11-25T07:57:04;8.50;65.30
24217;DHT22;12356;49.386;8.688;2022-11-25T07:59:35;8.50;66.00
24217;DHT22;12356;49.386;8.688;2022-11-25T08:02:08;8.50;66.60
24217;DHT22;12356;49.386;8.688;2022-11-25T08:04:39;8.60;66.80
24217;DHT22;12356;49.386;8.688;2022-11-25T08:07:10;8.50;66.90
24217;DHT22;12356;49.386;8.688;2022-11-25T08:09:41;8.50;67.90
24217;DHT22;12356;49.386;8.688;2022-11-25T08:12:11;8.50;68.60
24217;DHT22;12356;49.386;8.688;2022-11-25T08:14:42;8.60;69.40
24217;DHT22;12356;49.386;8.688;2022-11-25T08:17:12;8.70;69.70
24217;DHT22;12356;49.386;8.688;2022-11-25T08:19:43;8.70;69.50
24217;DHT22;12356;49.386;8.688;2022-11-25T08:22:14;8.80;69.70
24217;DHT22;12356;49.386;8.688;2022-11-25T08:24:44;8.80;69.80
24217;DHT22;12356;49.386;8.688;2022-11-25T08:27:15;8.80;69.80
24217;DHT22;12356;49.386;8.688;2022-11-25T08:29:45;8.80;69.90
24217;DHT22;12356;49.386;8.688;2022-11-25T08:32:16;8.90;70.10
24217;DHT22;12356;49.386;8.688;2022-11-25T08:34:47;8.90;69.90
24217;DHT22;12356;49.386;8.688;2022-11-25T08:37:17;8.90;70.30
24217;DHT22;12356;49.386;8.688;2022-11-25T08:39:48;8.90;70.70
24217;DHT22;12356;49.386;8.688;2022-11-25T08:42:19;9.00;70.20
24217;DHT22;12356;49.386;8.688;2022-11-25T08:44:51;9.00;69.10
24217;DHT22;12356;49.386;8.688;2022-11-25T08:47:23;9.10;67.50
24217;DHT22;12356;49.386;8.688;2022-11-25T08:49:54;9.10;66.60
24217;DHT22;12356;49.386;8.688;2022-11-25T08:52:25;9.10;65.20
24217;DHT22;12356;49.386;8.688;2022-11-25T08:54:58;9.20;64.70
24217;DHT22;12356;49.386;8.688;2022-11-25T08:57:29;9.10;63.20
24217;DHT22;12356;49.386;8.688;2022-11-25T08:59:59;9.20;60.40
24217;DHT22;12356;49.386;8.688;2022-11-25T09:02:30;9.10;59.40
24217;DHT22;12356;49.386;8.688;2022-11-25T09:05:01;9.20;58.80
24217;DHT22;12356;49.386;8.688;2022-11-25T09:07:31;9.20;57.40
24217;DHT22;12356;49.386;8.688;2022-11-25T09:10:03;9.20;58.30
24217;DHT22;12356;49.386;8.688;2022-11-25T09:12:34;9.20;57.70
24217;DHT22;12356;49.386;8.688;2022-11-25T09:15:05;9.20;57.40
24217;DHT22;12356;49.386;8.688;2022-11-25T09:17:36;9.20;56.90
24217;DHT22;12356;49.386;8.688;2022-11-25T09:20:07;9.30;54.50
24217;DHT22;12356;49.386;8.688;2022-11-25T09:22:38;9.30;53.70
24217;DHT22;12356;49.386;8.688;2022-11-25T09:25:08;9.30;53.30
24217;DHT22;12356;49.386;8.688;2022-11-25T09:27:39;9.30;52.20
24217;DHT22;12356;49.386;8.688;2022-11-25T09:30:10;9.30;51.00
24217;DHT22;12356;49.386;8.688;2022-11-25T09:32:41;9.30;52.10
24217;DHT22;12356;49.386;8.688;2022-11-25T09:35:12;9.30;52.40
24217;DHT22;12356;49.386;8.688;2022-11-25T09:37:42;9.30;51.20
24217;DHT22;12356;49.386;8.688;2022-11-25T09:40:19;9.30;51.40
24217;DHT22;12356;49.386;8.688;2022-11-25T09:52:11;9.30;51.70
24217;DHT22;12356;49.386;8.688;2022-11-25T09:54:48;9.30;50.10
24217;DHT22;12356;49.386;8.688;2022-11-25T09:57:28;9.30;51.60
24217;DHT22;12356;49.386;8.688;2022-11-25T10:00:08;9.30;51.40
24217;DHT22;12356;49.386;8.688;2022-11-25T10:05:40;9.30;50.90
24217;DHT22;12356;49.386;8.688;2022-11-25T10:08:19;9.40;51.30
24217;DHT22;12356;49.386;8.688;2022-11-25T10:11:02;9.40;50.10
24217;DHT22;12356;49.386;8.688;2022-11-25T10:13:48;9.40;50.10
24217;DHT22;12356;49.386;8.688;2022-11-25T10:16:27;9.30;49.80
24217;DHT22;12356;49.386;8.688;2022-11-25T10:24:45;9.30;50.40
24217;DHT22;12356;49.386;8.688;2022-11-25T10:27:37;9.30;50.10
24217;DHT22;12356;49.386;8.688;2022-11-25T10:30:20;9.40;50.50
24217;DHT22;12356;49.386;8.688;2022-11-25T10:33:12;9.30;51.10
24217;DHT22;12356;49.386;8.688;2022-11-25T10:38:34;9.30;53.00
24217;DHT22;12356;49.386;8.688;2022-11-25T10:41:07;9.40;53.00
24217;DHT22;12356;49.386;8.688;2022-11-25T10:43:39;9.50;53.50
24217;DHT22;12356;49.386;8.688;2022-11-25T10:49:20;9.40;53.00
24217;DHT22;12356;49.386;8.688;2022-11-25T10:51:54;9.40;53.00
24217;DHT22;12356;49.386;8.688;2022-11-25T10:54:28;9.40;52.40
24217;DHT22;12356;49.386;8.688;2022-11-25T10:57:01;9.50;52.50
24217;DHT22;12356;49.386;8.688;2022-11-25T10:59:35;9.50;53.40
24217;DHT22;12356;49.386;8.688;2022-11-25T11:02:24;9.40;54.60
24217;DHT22;12356;49.386;8.688;2022-11-25T11:05:02;9.50;55.20
24217;DHT22;12356;49.386;8.688;2022-11-25T11:07:39;9.50;55.80
24217;DHT22;12356;49.386;8.688;2022-11-25T11:12:57;9.60;55.00
24217;DHT22;12356;49.386;8.688;2022-11-25T11:15:30;9.60;54.70
24217;DHT22;12356;49.386;8.688;2022-11-25T11:20:51;9.60;54.60
24217;DHT22;12356;49.386;8.688;2022-11-25T11:23:23;9.70;55.20
24217;DHT22;12356;49.386;8.688;2022-11-25T11:26:03;9.70;55.40
24217;DHT22;12356;49.386;8.688;2022-11-25T11:31:21;9.70;54.70
24217;DHT22;12356;49.386;8.688;2022-11-25T11:34:17;9.80;55.50
24217;DHT22;12356;49.386;8.688;2022-11-25T11:43:20;9.90;56.50
24217;DHT22;12356;49.386;8.688;2022-11-25T11:54:16;9.70;57.10
24217;DHT22;12356;49.386;8.688;2022-11-25T11:56:59;9.70;58.00
24217;DHT22;12356;49.386;8.688;2022-11-25T12:07:46;9.90;58.90
24217;DHT22;12356;49.386;8.688;2022-11-25T12:16:14;9.90;60.20
24217;DHT22;12356;49.386;8.688;2022-11-25T12:24:41;10.00;57.90
24217;DHT22;12356;49.386;8.688;2022-11-25T12:27:34;10.00;58.70
24217;DHT22;12356;49.386;8.688;2022-11-25T12:30:10;10.00;58.70
24217;DHT22;12356;49.386;8.688;2022-11-25T12:36:10;10.10;58.70
24217;DHT22;12356;49.386;8.688;2022-11-25T12:38:53;10.20;58.80
24217;DHT22;12356;49.386;8.688;2022-11-25T12:41:41;10.20;59.80
24217;DHT22;12356;49.386;8.688;2022-11-25T12:46:58;10.30;58.50
24217;DHT22;12356;49.386;8.688;2022-11-25T12:49:31;10.40;59.40
24217;DHT22;12356;49.386;8.688;2022-11-25T13:12:16;10.50;60.00
24217;DHT22;12356;49.386;8.688;2022-11-25T13:15:20;10.50;60.00
24217;DHT22;12356;49.386;8.688;2022-11-25T13:18:02;10.50;60.00
24217;DHT22;12356;49.386;8.688;2022-11-25T13:20:45;10.60;60.10
24217;DHT22;12356;49.386;8.688;2022-11-25T13:25:48;10.60;60.00
24217;DHT22;12356;49.386;8.688;2022-11-25T13:28:32;10.60;60.10
24217;DHT22;12356;49.386;8.688;2022-11-25T13:36:24;10.60;61.40
24217;DHT22;12356;49.386;8.688;2022-11-25T13:41:59;10.70;61.30
24217;DHT22;12356;49.386;8.688;2022-11-25T13:44:32;10.70;61.10
24217;DHT22;12356;49.386;8.688;2022-11-25T13:47:37;10.70;61.30
24217;DHT22;12356;49.386;8.688;2022-11-25T13:53:16;10.70;60.60
24217;DHT22;12356;49.386;8.688;2022-11-25T13:55:48;10.70;60.70
24217;DHT22;12356;49.386;8.688;2022-11-25T13:58:24;10.70;61.00
24217;DHT22;12356;49.386;8.688;2022-11-25T14:01:19;10.70;61.10
24217;DHT22;12356;49.386;8.688;2022-11-25T14:03:53;10.80;61.10
24217;DHT22;12356;49.386;8.688;2022-11-25T14:09:33;10.80;61.20
24217;DHT22;12356;49.386;8.688;2022-11-25T14:15:03;10.80;61.20
24217;DHT22;12356;49.386;8.688;2022-11-25T14:26:19;10.80;61.80
24217;DHT22;12356;49.386;8.688;2022-11-25T14:28:54;10.70;61.80
24217;DHT22;12356;49.386;8.688;2022-11-25T14:31:40;10.70;62.00
24217;DHT22;12356;49.386;8.688;2022-11-25T14:37:13;10.70;61.80
24217;DHT22;12356;49.386;8.688;2022-11-25T14:39:53;10.60;62.60
24217;DHT22;12356;49.386;8.688;2022-11-25T14:42:30;10.50;62.30
24217;DHT22;12356;49.386;8.688;2022-11-25T14:45:03;10.50;62.40
24217;DHT22;12356;49.386;8.688;2022-11-25T14:47:48;10.50;62.60
24217;DHT22;12356;49.386;8.688;2022-11-25T14:50:19;10.50;62.40
24217;DHT22;12356;49.386;8.688;2022-11-25T14:52:50;10.40;62.70
24217;DHT22;12356;49.386;8.688;2022-11-25T14:55:29;10.40;62.90
24217;DHT22;12356;49.386;8.688;2022-11-25T14:58:00;10.30;63.30
24217;DHT22;12356;49.386;8.688;2022-11-25T15:00:31;10.30;64.00
24217;DHT22;12356;49.386;8.688;2022-11-25T15:03:03;10.30;65.30
24217;DHT22;12356;49.386;8.688;2022-11-25T15:05:38;10.30;65.30
24217;DHT22;12356;49.386;8.688;2022-11-25T15:08:13;10.40;65.50
24217;DHT22;12356;49.386;8.688;2022-11-25T15:10:56;10.40;65.60
24217;DHT22;12356;49.386;8.688;2022-11-25T15:16:21;10.50;65.50
24217;DHT22;12356;49.386;8.688;2022-11-25T15:18:58;10.50;65.30
24217;DHT22;12356;49.386;8.688;2022-11-25T15:21:37;10.50;65.30
24217;DHT22;12356;49.386;8.688;2022-11-25T15:24:23;10.50;65.00
24217;DHT22;12356;49.386;8.688;2022-11-25T15:26:56;10.50;64.80
24217;DHT22;12356;49.386;8.688;2022-11-25T15:29:29;10.50;65.20
24217;DHT22;12356;49.386;8.688;2022-11-25T15:32:00;10.50;64.80
24217;DHT22;12356;49.386;8.688;2022-11-25T15:34:31;10.40;65.00
24217;DHT22;12356;49.386;8.688;2022-11-25T15:37:02;10.50;66.00
24217;DHT22;12356;49.386;8.688;2022-11-25T15:39:32;10.50;65.00
24217;DHT22;12356;49.386;8.688;2022-11-25T15:42:24;10.40;64.80
24217;DHT22;12356;49.386;8.688;2022-11-25T15:44:59;10.50;64.70
24217;DHT22;12356;49.386;8.688;2022-11-25T15:47:31;10.40;64.60
24217;DHT22;12356;49.386;8.688;2022-11-25T15:50:17;10.40;65.20
24217;DHT22;12356;49.386;8.688;2022-11-25T15:52:52;10.40;65.40
24217;DHT22;12356;49.386;8.688;2022-11-25T15:55:36;10.40;65.40
24217;DHT22;12356;49.386;8.688;2022-11-25T15:58:17;10.40;65.30
24217;DHT22;12356;49.386;8.688;2022-11-25T16:03:34;10.50;64.90
24217;DHT22;12356;49.386;8.688;2022-11-25T16:06:20;10.50;64.80
24217;DHT22;12356;49.386;8.688;2022-11-25T16:11:27;10.50;64.60
24217;DHT22;12356;49.386;8.688;2022-11-25T16:14:27;10.50;64.40
24217;DHT22;12356;49.386;8.688;2022-11-25T16:17:03;10.50;64.10
24217;DHT22;12356;49.386;8.688;2022-11-25T16:19:40;10.50;64.20
24217;DHT22;12356;49.386;8.688;2022-11-25T16:22:14;10.40;63.90
24217;DHT22;12356;49.386;8.688;2022-11-25T16:24:51;10.40;64.20
24217;DHT22;12356;49.386;8.688;2022-11-25T16:27:23;10.40;64.10
24217;DHT22;12356;49.386;8.688;2022-11-25T16:32:34;10.40;64.50
24217;DHT22;12356;49.386;8.688;2022-11-25T16:35:19;10.40;64.60
24217;DHT22;12356;49.386;8.688;2022-11-25T16:37:56;10.40;64.70
24217;DHT22;12356;49.386;8.688;2022-11-25T16:40:27;10.30;64.60
24217;DHT22;12356;49.386;8.688;2022-11-25T16:42:59;10.30;64.80
24217;DHT22;12356;49.386;8.688;2022-11-25T16:45:30;10.30;64.80
24217;DHT22;12356;49.386;8.688;2022-11-25T16:48:01;10.40;65.00
24217;DHT22;12356;49.386;8.688;2022-11-25T16:50:31;10.40;64.80
24217;DHT22;12356;49.386;8.688;2022-11-25T16:53:02;10.40;64.80
24217;DHT22;12356;49.386;8.688;2022-11-25T16:55:33;10.30;65.20
24217;DHT22;12356;49.386;8.688;2022-11-25T16:58:08;10.30;65.20
24217;DHT22;12356;49.386;8.688;2022-11-25T17:00:41;10.30;65.30
24217;DHT22;12356;49.386;8.688;2022-11-25T17:03:13;10.30;65.80
24217;DHT22;12356;49.386;8.688;2022-11-25T17:05:44;10.30;65.30
24217;DHT22;12356;49.386;8.688;2022-11-25T17:08:15;10.40;65.40
24217;DHT22;12356;49.386;8.688;2022-11-25T17:10:47;10.40;64.90
24217;DHT22;12356;49.386;8.688;2022-11-25T17:13:20;10.40;64.90
24217;DHT22;12356;49.386;8.688;2022-11-25T17:15:52;10.40;65.30
24217;DHT22;12356;49.386;8.688;2022-11-25T17:18:23;10.30;64.90
24217;DHT22;12356;49.386;8.688;2022-11-25T17:20:55;10.30;65.10
24217;DHT22;12356;49.386;8.688;2022-11-25T17:23:25;10.40;65.00
24217;DHT22;12356;49.386;8.688;2022-11-25T17:25:56;10.40;64.70
24217;DHT22;12356;49.386;8.688;2022-11-25T17:28:27;10.40;64.40
24217;DHT22;12356;49.386;8.688;2022-11-25T17:30:58;10.40;64.50
24217;DHT22;12356;49.386;8.688;2022-11-25T17:33:28;10.40;64.20
24217;DHT22;12356;49.386;8.688;2022-11-25T17:35:59;10.30;63.90
24217;DHT22;12356;49.386;8.688;2022-11-25T17:38:30;10.20;63.80
24217;DHT22;12356;49.386;8.688;2022-11-25T17:41:01;10.10;64.10
24217;DHT22;12356;49.386;8.688;2022-11-25T17:43:31;10.20;64.30
24217;DHT22;12356;49.386;8.688;2022-11-25T17:46:03;10.20;63.90
24217;DHT22;12356;49.386;8.688;2022-11-25T17:48:33;10.30;63.80
24217;DHT22;12356;49.386;8.688;2022-11-25T17:51:04;10.20;63.20
24217;DHT22;12356;49.386;8.688;2022-11-25T17:53:36;10.20;63.20
24217;DHT22;12356;49.386;8.688;2022-11-25T17:58:51;10.10;63.50
24217;DHT22;12356;49.386;8.688;2022-11-25T18:01:22;10.10;63.40
24217;DHT22;12356;49.386;8.688;2022-11-25T18:03:53;10.00;63.60
24217;DHT22;12356;49.386;8.688;2022-11-25T18:06:23;10.00;63.80
24217;DHT22;12356;49.386;8.688;2022-11-25T18:08:54;10.00;63.40
24217;DHT22;12356;49.386;8.688;2022-11-25T18:11:24;9.90;64.40
24217;DHT22;12356;49.386;8.688;2022-11-25T18:13:55;9.80;64.80
24217;DHT22;12356;49.386;8.688;2022-11-25T18:16:26;9.90;65.00
24217;DHT22;12356;49.386;8.688;2022-11-25T18:18:58;9.90;64.80
24217;DHT22;12356;49.386;8.688;2022-11-25T18:21:29;9.90;64.90
24217;DHT22;12356;49.386;8.688;2022-11-25T18:24:00;9.90;65.00
24217;DHT22;12356;49.386;8.688;2022-11-25T18:26:32;9.90;65.00
24217;DHT22;12356;49.386;8.688;2022-11-25T18:29:13;10.00;64.10
24217;DHT22;12356;49.386;8.688;2022-11-25T18:31:45;9.90;64.80
24217;DHT22;12356;49.386;8.688;2022-11-25T18:34:17;9.90;65.00
24217;DHT22;12356;49.386;8.688;2022-11-25T18:36:49;9.90;64.80
24217;DHT22;12356;49.386;8.688;2022-11-25T18:39:20;9.80;64.40
24217;DHT22;12356;49.386;8.688;2022-11-25T18:41:51;9.90;64.90